Santiago, Brazil
Current Conditions -  °F | °C
As of 5:00 AM on Saturday 25 Oct 2014 (Local Time) from SBSM Reporting Station
Broken Clouds Broken Clouds  
Wind Chill: 66°   Ceiling: 700
Heat Index: 66°   Visibility: 5mi
Dew Point: 64°   Wind: 7mph
Humidity: 94%   Direction: 70°ENE
Pressure: 29.88"   Gusts: NA
Location:  29.19°S, 54.87°W
Report Text: SBSM 250700Z 07006KT 8000 BKN007 19/18 Q1012
Loading
Personal Weather Stations






























Interactive Weather Map
Tropical Storm Tracking
New forecast layout! Learn more

10-Day Weather Forecast

Advertisements
Track Severe Weather on mobile